Flight Track Log - Related Links

Times and Time Zones

All times are in EST time to prevent confusion due to time zone crossing. See the N672DS flight status page for this flight to view local times or setup timezone preferences in your user account.

Time Position Orientation Groundspeed Altitude Reporting Facility
EST Latitude Longitude Course Direction KTS MPH feet Rate Location/Type
Sun 03:47:01 PM 39.5667 -76.9833 255° West 69 79 2,900  Level Potomac TRACON
Sun 03:48:01 PM 39.5667 -77.0167 270° West 100 115 3,100 50 Climbing Potomac TRACON
Sun 03:49:01 PM 39.5667 -77.0500 270° West 113 130 3,000  Descending Potomac TRACON
Sun 03:50:01 PM 39.5667 -77.1000 270° West 103 119 3,100 50 Climbing Potomac TRACON
Sun 03:51:02 PM 39.5667 -77.1333 270° West 100 115 3,100  Level Potomac TRACON
Sun 03:52:00 PM 39.6083 -77.0077 255° West  Level Estimated
Sun 03:52:02 PM 39.5667 -77.1667 270° West 101 116 3,100  Level Potomac TRACON
Sun 03:53:02 PM 39.5500 -77.2000 237° Southwest 110 127 2,700 -143 Descending Potomac TRACON
Sun 03:54:08 PM 39.5333 -77.2333 237° Southwest 97 112 2,800  Climbing Potomac TRACON
Sun 03:55:09 PM 39.5167 -77.2500 218° Southwest 93 107 2,700 -99 Descending Potomac TRACON
Sun 03:56:09 PM 39.5000 -77.2833 237° Southwest 97 112 2,600 -33 Descending Potomac TRACON
Sun 03:58:10 PM 39.5000 -77.2833 270° West 97 112 2,600  Level Potomac TRACON
Sun 04:00:05 PM 39.5000 -77.2833 270° West 97 112 2,600  Level Potomac TRACON
Sun 04:02:05 PM 39.5000 -77.2833 270° West 97 112 2,600  Level Potomac TRACON
Sun 04:04:12 PM 39.5000 -77.2833 270° West 97 112 2,600 193 Level Potomac TRACON
Sun 04:05:12 PM 39.4667 -77.3000 201° Southwest 158 182 3,200 300 Climbing Potomac TRACON
Sun 04:06:12 PM 39.4833 -77.2500 67° East 146 168 3,200 149 Level Potomac TRACON
Sun 04:07:13 PM 39.4833 -77.2167 90° East 126 145 3,500 397 Climbing Potomac TRACON
Sun 04:08:13 PM 39.4667 -77.1667 113° Southeast 126 145 4,000 298 Climbing Potomac TRACON
Sun 04:09:14 PM 39.4833 -77.1167 67° East 152 175 4,100 50 Climbing Potomac TRACON
Sun 04:10:14 PM 39.5000 -77.0667 67° East 150 173 4,100 -50 Level Potomac TRACON
Sun 04:11:15 PM 39.5000 -77.0167 90° East 147 169 4,000  Descending Potomac TRACON
Sun 04:12:15 PM 39.4833 -76.9667 113° Southeast 125 144 4,100  Climbing Potomac TRACON
Sun 04:13:16 PM 39.4667 -76.9500 142° Southeast 103 119 4,000 -50 Descending Potomac TRACON
Sun 04:14:16 PM 39.4500 -76.9667 218° Southwest 116 133 4,000 50 Level Potomac TRACON
Sun 04:15:17 PM 39.4833 -76.9833 339° North 141 162 4,100  Climbing Potomac TRACON
Sun 04:16:17 PM 39.5167 -77.0000 339° North 130 150 4,000  Descending Potomac TRACON
Sun 04:17:17 PM 39.5000 -77.0000 180° South 102 117 4,100 100 Climbing Potomac TRACON
Sun 04:18:17 PM 39.4667 -76.9833 159° South 96 110 4,200  Climbing Potomac TRACON
Sun 04:19:17 PM 39.4500 -76.9833 180° South 122 140 4,100 -149 Descending Potomac TRACON
Sun 04:20:18 PM 39.4833 -76.9667 21° North 153 176 3,900 -99 Descending Potomac TRACON
Sun 04:21:18 PM 39.5167 -76.9833 339° North 133 153 3,900 50 Level Potomac TRACON
Sun 04:22:18 PM 39.5000 -77.0000 218° Southwest 101 116 4,000  Climbing Potomac TRACON
Sun 04:23:18 PM 39.4667 -77.0000 180° South 90 104 3,900 -48 Descending Potomac TRACON
Sun 04:24:24 PM 39.4667 -76.9667 90° East 142 163 3,900 50 Level Potomac TRACON
Sun 04:25:19 PM 39.5000 -76.9833 339° North 133 153 4,000 50 Climbing Potomac TRACON
Sun 04:26:25 PM 39.4833 -77.0000 218° Southwest 95 109 4,000  Level Potomac TRACON
Sun 04:27:25 PM 39.4667 -77.0000 180° South 96 110 4,000 -50 Level Potomac TRACON
Sun 04:28:26 PM 39.4500 -76.9667 123° Southeast 138 159 3,900 -50 Descending Potomac TRACON
Sun 04:29:26 PM 39.4833 -76.9667 360° North 136 157 3,900  Level Potomac TRACON
Sun 04:30:26 PM 39.5000 -77.0000 303° West 120 138 3,900 -300 Level Potomac TRACON
Sun 04:31:26 PM 39.4833 -77.0000 180° South 93 107 3,300 -550 Descending Potomac TRACON
Sun 04:32:26 PM 39.4500 -77.0000 180° South 92 106 2,800 -250 Descending Potomac TRACON
Sun 04:33:26 PM 39.4667 -76.9667 57° Northeast 141 162 2,800  Level Potomac TRACON
Sun 04:34:32 PM 39.5167 -76.9833 346° North 141 162 2,800 -238 Level Potomac TRACON
Sun 04:35:32 PM 39.5500 -76.9833 360° North 147 169 2,300 -350 Descending Potomac TRACON
Sun 04:36:32 PM 39.5833 -77.0000 339° North 131 151 2,100 -66 Descending Potomac TRACON
Sun 04:38:33 PM 39.5833 -77.0000 360° North 131 151 2,100  Level Potomac TRACON
Sun 04:40:33 PM 39.5833 -77.0000 360° North 131 151 2,100  Level Potomac TRACON

Login

Don't have an account? Register now (free) for customized features, flight alerts, and more!